地図

経路データ

SID SEASON NUMBER BASIN SUBBASIN NAME ISO_TIME NATURE LAT LON WMO_WIND WMO_PRES WMO_AGENCY TRACK_TYPE DIST2LAND LANDFALL IFLAG USA_AGENCY USA_ATCF_ID USA_LAT USA_LON USA_RECORD USA_STATUS USA_WIND USA_PRES USA_SSHS USA_R34_NE USA_R34_SE USA_R34_SW USA_R34_NW USA_R50_NE USA_R50_SE USA_R50_SW USA_R50_NW USA_R64_NE USA_R64_SE USA_R64_SW USA_R64_NW USA_POCI USA_ROCI USA_RMW USA_EYE TOKYO_LAT TOKYO_LON TOKYO_GRADE TOKYO_WIND TOKYO_PRES TOKYO_R50_DIR TOKYO_R50_LONG TOKYO_R50_SHORT TOKYO_R30_DIR TOKYO_R30_LONG TOKYO_R30_SHORT TOKYO_LAND CMA_LAT CMA_LON CMA_CAT CMA_WIND CMA_PRES HKO_LAT HKO_LON HKO_CAT HKO_WIND HKO_PRES NEWDELHI_LAT NEWDELHI_LON NEWDELHI_GRADE NEWDELHI_WIND NEWDELHI_PRES NEWDELHI_CI NEWDELHI_DP NEWDELHI_POCI REUNION_LAT REUNION_LON REUNION_TYPE REUNION_WIND REUNION_PRES REUNION_TNUM REUNION_CI REUNION_RMW REUNION_R34_NE REUNION_R34_SE REUNION_R34_SW REUNION_R34_NW REUNION_R50_NE REUNION_R50_SE REUNION_R50_SW REUNION_R50_NW REUNION_R64_NE REUNION_R64_SE REUNION_R64_SW REUNION_R64_NW BOM_LAT BOM_LON BOM_TYPE BOM_WIND BOM_PRES BOM_TNUM BOM_CI BOM_RMW BOM_R34_NE BOM_R34_SE BOM_R34_SW BOM_R34_NW BOM_R50_NE BOM_R50_SE BOM_R50_SW BOM_R50_NW BOM_R64_NE BOM_R64_SE BOM_R64_SW BOM_R64_NW BOM_ROCI BOM_POCI BOM_EYE BOM_POS_METHOD BOM_PRES_METHOD NADI_LAT NADI_LON NADI_CAT NADI_WIND NADI_PRES WELLINGTON_LAT WELLINGTON_LON WELLINGTON_WIND WELLINGTON_PRES DS824_LAT DS824_LON DS824_STAGE DS824_WIND DS824_PRES TD9636_LAT TD9636_LON TD9636_STAGE TD9636_WIND TD9636_PRES TD9635_LAT TD9635_LON TD9635_WIND TD9635_PRES TD9635_ROCI NEUMANN_LAT NEUMANN_LON NEUMANN_CLASS NEUMANN_WIND NEUMANN_PRES MLC_LAT MLC_LON MLC_CLASS MLC_WIND MLC_PRES USA_GUST BOM_GUST BOM_GUST_PER REUNION_GUST REUNION_GUST_PER USA_SEAHGT USA_SEARAD_NE USA_SEARAD_SE USA_SEARAD_SW USA_SEARAD_NW STORM_SPEED STORM_DIR
1873060S16067 1873 8 SI MM NOT_NAMED 1873-03-01 06:00:00 NR -15.7500 67.4000 reunion main 1137 1108 _____O____O___ -1 -15.5000 67.8000 99 9.90000 -16.0000 67.0000 7 5 226
1873060S16067 1873 8 SI MM NOT_NAMED 1873-03-01 09:00:00 NR -15.9197 67.2179 main 1108 1079 _____P____P___ -1 -15.4874 67.7728 99 -16.3520 66.6631 7 5 225
1873060S16067 1873 8 SI MM NOT_NAMED 1873-03-01 12:00:00 NR -16.0981 67.0346 main 1079 1059 _____P____P___ -1 -15.4832 67.7387 99 -16.7130 66.3305 7 5 223
1873060S16067 1873 8 SI MM NOT_NAMED 1873-03-01 15:00:00 NR -16.2940 66.8492 main 1050 1030 _____P____P___ -1 -15.4956 67.6907 99 -17.0925 66.0077 7 6 221
1873060S16067 1873 8 SI MM NOT_NAMED 1873-03-01 18:00:00 NR -16.5166 66.6610 main 1030 997 _____P____O___ -1 -15.5331 67.6221 99 -17.5000 65.7000 7 6 217
1873060S16067 1873 8 SI MM NOT_NAMED 1873-03-01 21:00:00 NR -16.7715 66.4698 main 997 968 _____P____P___ -1 -15.6040 67.5257 99 -17.9389 65.4140 7 7 214
1873060S16067 1873 8 SI MM NOT_NAMED 1873-03-02 00:00:00 NR -17.0520 66.2776 main 964 935 _____P____P___ -1 -15.7166 67.3947 99 -18.3874 65.1604 7 7 212
1873060S16067 1873 8 SI MM NOT_NAMED 1873-03-02 03:00:00 NR -17.3482 66.0867 main 935 903 _____P____P___ -1 -15.8792 67.2219 99 -18.8172 64.9516 7 7 211
1873060S16067 1873 8 SI MM NOT_NAMED 1873-03-02 06:00:00 NR -17.6500 65.9000 reunion main 903 872 _____O____O___ -1 -16.1000 67.0000 99 9.90000 -19.2000 64.8000 7 7 211
1873060S16067 1873 8 SI MM NOT_NAMED 1873-03-02 09:00:00 NR -17.9460 65.7132 main 872 841 _____P____P___ -1 -16.3837 66.7257 99 -19.5082 64.7007 7 7 210
1873060S16067 1873 8 SI MM NOT_NAMED 1873-03-02 12:00:00 NR -18.2438 65.5352 main 841 822 _____P____P___ -1 -16.7203 66.4110 99 -19.7672 64.6594 7 7 209
1873060S16067 1873 8 SI MM NOT_NAMED 1873-03-02 15:00:00 NR -18.5445 65.3679 main 822 793 _____P____P___ -1 -17.0964 66.0723 99 -19.9927 64.6634 7 7 207
1873060S16067 1873 8 SI MM NOT_NAMED 1873-03-02 18:00:00 NR -18.8492 65.2129 main 793 773 _____P____O___ -1 -17.4984 65.7259 99 -20.2000 64.7000 7 7 204
1873060S16067 1873 8 SI MM NOT_NAMED 1873-03-02 21:00:00 NR -19.1698 65.0693 main 773 757 _____P____P___ -1 -17.9129 65.3884 99 -20.4266 64.7501 7 7 201
1873060S16067 1873 8 SI MM NOT_NAMED 1873-03-03 00:00:00 NR -19.4822 64.9520 main 757 743 _____P____P___ -1 -18.3268 65.0769 99 -20.6375 64.8272 7 6 198
1873060S16067 1873 8 SI MM NOT_NAMED 1873-03-03 03:00:00 NR -19.7783 64.8620 main 743 731 _____P____P___ -1 -18.7268 64.8083 99 -20.8297 64.9158 7 6 194
1873060S16067 1873 8 SI MM NOT_NAMED 1873-03-03 06:00:00 NR -20.0500 64.8000 reunion main 731 729 _____O____O___ -1 -19.1000 64.6000 99 9.90000 -21.0000 65.0000 7 5 189
1873060S16067 1873 8 SI MM NOT_NAMED 1873-03-03 09:00:00 NR -20.2750 64.7762 main 729 729 _____P____P___ -1 -19.3994 64.4912 99 -21.1506 65.0613 7 4 183
1873060S16067 1873 8 SI MM NOT_NAMED 1873-03-03 12:00:00 NR -20.4792 64.7763 main 729 729 _____P____P___ -1 -19.6784 64.4376 99 -21.2800 65.1151 7 4 0
1873060S16067 1873 8 SI MM NOT_NAMED 1873-03-03 15:00:00 NR -20.6673 64.7970 main 730 730 _____P____P___ -1 -19.9403 64.4326 99 -21.3944 65.1613 7 4 171
1873060S16067 1873 8 SI MM NOT_NAMED 1873-03-03 18:00:00 NR -20.8441 64.8348 main 730 730 _____P____O___ -1 -20.1881 64.4695 99 -21.5000 65.2000 7 4 167
1873060S16067 1873 8 SI MM NOT_NAMED 1873-03-03 21:00:00 NR -21.0140 64.8768 main 742 742 _____P____P___ -1 -20.4250 64.5416 99 -21.6031 65.2120 7 3 165
1873060S16067 1873 8 SI MM NOT_NAMED 1873-03-04 00:00:00 NR -21.1769 64.9311 main 744 744 _____P____P___ -1 -20.6539 64.6419 99 -21.6999 65.2203 7 3 160
1873060S16067 1873 8 SI MM NOT_NAMED 1873-03-04 03:00:00 NR -21.3373 65.0035 main 756 756 _____P____P___ -1 -20.8779 64.7637 99 -21.7968 65.2433 7 4 154
1873060S16067 1873 8 SI MM NOT_NAMED 1873-03-04 06:00:00 NR -21.5000 65.1000 reunion main 769 769 _____O____O___ -1 -21.1000 64.9000 99 9.90000 -21.9000 65.3000 7 4 151
1873060S16067 1873 8 SI MM NOT_NAMED 1873-03-04 09:00:00 NR -21.6760 65.2040 main 783 783 _____P____P___ -1 -21.3300 64.9861 99 -22.0220 65.4220 7 4 149
1873060S16067 1873 8 SI MM NOT_NAMED 1873-03-04 12:00:00 NR -21.8527 65.3334 main 798 798 _____P____P___ -1 -21.5553 65.0896 99 -22.1502 65.5773 7 4 144
1873060S16067 1873 8 SI MM NOT_NAMED 1873-03-04 15:00:00 NR -22.0279 65.4783 main 820 820 _____P____P___ -1 -21.7775 65.2127 99 -22.2782 65.7439 7 4 142
1873060S16067 1873 8 SI MM NOT_NAMED 1873-03-04 18:00:00 NR -22.1992 65.6288 main 835 835 _____P____O___ -1 -21.9983 65.3576 99 -22.4000 65.9000 7 4 142
1873060S16067 1873 8 SI MM NOT_NAMED 1873-03-04 21:00:00 NR -22.3468 65.7485 main 848 848 _____P____P___ -1 -22.2194 65.5265 99 -22.4743 65.9705 7 4 142
1873060S16067 1873 8 SI MM NOT_NAMED 1873-03-05 00:00:00 NR -22.4945 65.8778 main 873 873 _____P____P___ -1 -22.4422 65.7217 99 -22.5468 66.0338 7 4 139
1873060S16067 1873 8 SI MM NOT_NAMED 1873-03-05 03:00:00 NR -22.6573 66.0378 main 889 889 _____P____P___ -1 -22.6686 65.9454 99 -22.6460 66.1302 7 5 136
1873060S16067 1873 8 SI MM NOT_NAMED 1873-03-05 06:00:00 NR -22.8500 66.2500 reunion main 922 912 _____O____O___ -1 -22.9000 66.2000 99 9.90000 -22.8000 66.3000 7 7 134
1873060S16067 1873 8 SI MM NOT_NAMED 1873-03-05 09:00:00 NR -23.1070 66.5505 main 961 961 _____P____P___ -1 -23.1589 66.5019 99 -23.0551 66.5991 7 8 132
1873060S16067 1873 8 SI MM NOT_NAMED 1873-03-05 12:00:00 NR -23.3936 66.9066 main 1000 1000 _____P____P___ -1 -23.4241 66.8396 99 -23.3631 66.9737 7 9 130
1873060S16067 1873 8 SI MM NOT_NAMED 1873-03-05 15:00:00 NR -23.6903 67.2953 main 1049 1049 _____P____P___ -1 -23.6911 67.2040 99 -23.6895 67.3866 7 9 129
1873060S16067 1873 8 SI MM NOT_NAMED 1873-03-05 18:00:00 NR -23.9777 67.6929 main 1099 1099 _____P____O___ -1 -23.9554 67.5859 99 -24.0000 67.8000 7 9 128
1873060S16067 1873 8 SI MM NOT_NAMED 1873-03-05 21:00:00 NR -24.2356 68.0728 main 1145 1145 _____P____P___ -1 -24.2126 67.9760 99 -24.2586 68.1697 7 9 126
1873060S16067 1873 8 SI MM NOT_NAMED 1873-03-06 00:00:00 NR -24.4767 68.4475 main 1185 1185 _____P____P___ -1 -24.4586 68.3647 99 -24.4948 68.5303 7 8 125
1873060S16067 1873 8 SI MM NOT_NAMED 1873-03-06 03:00:00 NR -24.6989 68.8092 main 1231 1231 _____P____P___ -1 -24.6891 68.7427 99 -24.7087 68.8758 7 8 124
1873060S16067 1873 8 SI MM NOT_NAMED 1873-03-06 06:00:00 NR -24.9000 69.1500 reunion main 1277 1267 _____O____O___ -1 -24.9000 69.1000 99 9.90000 -24.9000 69.2000 7 7 123
1873060S16067 1873 8 SI MM NOT_NAMED 1873-03-06 09:00:00 NR -25.0847 69.4643 main 1313 1313 _____P____P___ -1 -25.0941 69.4274 99 -25.0753 69.5011 7 7 122
1873060S16067 1873 8 SI MM NOT_NAMED 1873-03-06 12:00:00 NR -25.2505 69.7607 main 1349 1349 _____P____P___ -1 -25.2714 69.7407 99 -25.2296 69.7806 7 6 121
1873060S16067 1873 8 SI MM NOT_NAMED 1873-03-06 15:00:00 NR -25.4007 70.0413 main 1372 1372 _____P____P___ -1 -25.4322 70.0378 99 -25.3691 70.0448 7 6 120
1873060S16067 1873 8 SI MM NOT_NAMED 1873-03-06 18:00:00 NR -25.5384 70.3082 main 1404 1404 _____P____O___ -1 -25.5768 70.3163 99 -25.5000 70.3000 7 5 119
1873060S16067 1873 8 SI MM NOT_NAMED 1873-03-06 21:00:00 NR -25.6665 70.5630 main 1440 1440 _____P____P___ -1 -25.7055 70.5741 99 -25.6275 70.5518 7 5 119
1873060S16067 1873 8 SI MM NOT_NAMED 1873-03-07 00:00:00 NR -25.7905 70.8059 main 1462 1462 _____P____P___ -1 -25.8188 70.8088 99 -25.7529 70.8019 7 5 119
1873060S16067 1873 8 SI MM NOT_NAMED 1873-03-07 03:00:00 NR -25.9035 71.0291 main 1485 1485 _____P____P___ -1 -25.9168 71.0182 99 -25.8769 71.0511 7 4 119
1873060S16067 1873 8 SI MM NOT_NAMED 1873-03-07 06:00:00 NR -26.0000 71.2200 reunion main 1508 1508 _____O____O___ -1 -26.0000 71.2000 99 9.90000 -26.0000 71.3000 7 3 120
1873060S16067 1873 8 SI MM NOT_NAMED 1873-03-07 09:00:00 NR -26.0690 71.3530 main 1530 1530 _____P________ -1 -26.0690 71.3530 99 7 3 118
1873060S16067 1873 8 SI MM NOT_NAMED 1873-03-07 12:00:00 NR -26.1253 71.4799 main 1540 1540 _____P________ -1 -26.1253 71.4799 99 7 2 116
1873060S16067 1873 8 SI MM NOT_NAMED 1873-03-07 15:00:00 NR -26.1708 71.5843 main 1553 1553 _____P________ -1 -26.1708 71.5843 99 7 2 116
1873060S16067 1873 8 SI MM NOT_NAMED 1873-03-07 18:00:00 NR -26.2073 71.6700 main 1562 1562 _____P________ -1 -26.2073 71.6700 99 2 115
1873060S16067 1873 8 SI MM NOT_NAMED 1873-03-07 21:00:00 NR -26.2368 71.7406 main 1562 1562 _____P________ -1 -26.2368 71.7406 99 1 114
1873060S16067 1873 8 SI MM NOT_NAMED 1873-03-08 00:00:00 NR -26.2608 71.8000 main 1576 1576 _____P________ -1 -26.2608 71.8000 99 1 115
1873060S16067 1873 8 SI MM NOT_NAMED 1873-03-08 03:00:00 NR -26.2813 71.8519 main 1585 1585 _____P________ -1 -26.2813 71.8519 99 1 114
1873060S16067 1873 8 SI MM NOT_NAMED 1873-03-08 06:00:00 NR -26.3000 71.9000 reunion main 1585 _____O________ -1 -26.3000 71.9000 99 9.90000 1 118

IBTrACS Databaseについて

本データベースは、米国NOAAが公開する1842年以降の世界の熱帯低気圧のベストトラックデータアーカイブInternational Best Track Archive for Climate Stewardship (IBTrACS)を、ウェブで閲覧しやすい形式に変換したものです。

最終更新日:2021-11-26